Time;durP1;ratioP1;P1;durP2;ratioP2;P2;SDS_P1;SDS_P2;PMS_P1;PMS_P2;Temp;Humidity;BMP_temperature;BMP_pressure;BME280_temperature;BME280_humidity;BME280_pressure;Samples;Min_cycle;Max_cycle;Signal;HPM_P1;HPM_P2
2022/05/14 00:00:36;;;;;;;11.20;3.38;;;;;;;12.72;80.93;101974.53;6435584;23;20017;-70
2022/05/14 00:03:07;;;;;;;10.98;2.97;;;;;;;12.72;81.02;101971.91;6435898;23;20000;-70
2022/05/14 00:05:39;;;;;;;8.25;3.08;;;;;;;12.74;79.99;101983.16;6435867;23;20001;-70
2022/05/14 00:08:11;;;;;;;11.27;3.28;;;;;;;12.66;80.81;101981.13;6435785;23;20013;-71
2022/05/14 00:13:34;;;;;;;8.10;3.65;;;;;;;12.61;80.79;101983.28;6433567;23;20008;-70
2022/05/14 00:16:06;;;;;;;7.65;3.17;;;;;;;12.59;82.12;101979.06;6435971;23;20270;-70
2022/05/14 00:18:38;;;;;;;11.73;3.47;;;;;;;12.59;82.13;101977.28;6408783;23;20005;-71
2022/05/14 00:21:11;;;;;;;15.45;3.50;;;;;;;12.48;83.23;101984.28;6436993;23;20005;-69
2022/05/14 00:23:42;;;;;;;9.35;3.63;;;;;;;12.48;83.37;101974.63;6437394;23;20397;-70
2022/05/14 00:26:14;;;;;;;10.93;3.83;;;;;;;12.45;83.52;101981.88;6432751;23;20029;-71
2022/05/14 00:28:49;;;;;;;11.23;3.83;;;;;;;12.24;85.01;101955.44;6408002;23;20463;-71
2022/05/14 00:31:20;;;;;;;12.90;3.75;;;;;;;12.35;83.94;101966.81;6407616;23;20336;-70
2022/05/14 00:33:52;;;;;;;12.05;4.03;;;;;;;12.33;85.27;101963.44;6435925;23;20016;-70
2022/05/14 00:36:23;;;;;;;8.20;3.67;;;;;;;12.28;85.77;101965.59;6436012;23;20000;-71
2022/05/14 00:38:54;;;;;;;8.32;3.55;;;;;;;12.27;85.78;101963.06;6408326;23;20043;-71
2022/05/14 00:41:27;;;;;;;13.13;4.25;;;;;;;12.23;84.79;101961.63;6435551;23;20450;-71
2022/05/14 00:44:00;;;;;;;8.35;3.80;;;;;;;12.21;85.55;101959.13;6434273;23;20456;-70
2022/05/14 00:46:59;;;;;;;11.48;4.82;;;;;;;12.48;83.53;101965.91;6435856;23;20075;-70
2022/05/14 00:49:33;;;;;;;9.02;4.45;;;;;;;12.15;86.42;101960.38;6434451;23;20008;-70
2022/05/14 00:52:11;;;;;;;10.82;4.15;;;;;;;12.09;85.99;101970.53;6435288;23;20032;-71
2022/05/14 00:55:00;;;;;;;12.75;4.60;;;;;;;12.21;85.20;101961.75;6434387;23;20433;-69
2022/05/14 00:57:35;;;;;;;12.85;4.75;;;;;;;12.06;86.04;101962.88;6433893;23;20020;-70
2022/05/14 01:00:11;;;;;;;9.68;4.03;;;;;;;12.04;86.74;101962.97;6435240;23;20393;-69
2022/05/14 01:02:43;;;;;;;8.43;4.10;;;;;;;11.93;85.38;101961.16;6408784;23;20009;-71
2022/05/14 01:05:18;;;;;;;9.80;3.55;;;;;;;11.93;86.60;101971.66;6435187;23;19997;-70
2022/05/14 01:07:52;;;;;;;10.15;3.85;;;;;;;11.87;86.31;101961.56;6435349;23;20009;-70
2022/05/14 01:10:31;;;;;;;10.65;3.83;;;;;;;11.88;87.13;101959.78;6435933;23;20322;-70
2022/05/14 01:13:03;;;;;;;9.88;3.97;;;;;;;11.80;86.72;101962.09;6434159;23;20024;-68
2022/05/14 01:15:58;;;;;;;7.57;3.70;;;;;;;11.96;86.27;101964.47;6434510;23;20452;-71
2022/05/14 01:18:33;;;;;;;8.93;3.95;;;;;;;11.77;86.81;101951.81;6407752;23;20079;-69
2022/05/14 01:21:20;;;;;;;9.15;3.97;;;;;;;11.87;86.13;101955.50;6435245;23;20009;-71
2022/05/14 01:27:01;;;;;;;10.88;3.50;;;;;;;11.72;85.75;101961.81;6433788;23;20021;-71
2022/05/14 01:29:34;;;;;;;9.00;3.33;;;;;;;11.70;85.74;101961.91;6433381;23;20012;-71
2022/05/14 01:32:05;;;;;;;8.52;3.35;;;;;;;11.65;85.59;101956.16;6434815;23;20087;-71
2022/05/14 01:34:37;;;;;;;6.32;3.17;;;;;;;11.60;85.63;101961.75;6434820;23;20437;-69
2022/05/14 01:37:10;;;;;;;9.05;3.92;;;;;;;11.59;85.99;101961.84;6433050;23;20013;-69
2022/05/14 01:39:41;;;;;;;;;;;;;;;12.11;81.83;101958.09;6434974;23;20314;-71
2022/05/14 01:42:12;;;;;;;8.40;3.10;;;;;;;11.50;85.05;101959.88;6434504;23;19959;-70
2022/05/14 01:44:44;;;;;;;8.13;3.47;;;;;;;11.47;85.35;101963.53;6407646;23;20244;-71
2022/05/14 01:47:15;;;;;;;7.00;3.03;;;;;;;11.38;86.55;101967.66;6435024;23;20012;-70
2022/05/14 01:49:46;;;;;;;8.48;2.55;;;;;;;11.40;85.91;101971.03;6434391;23;20009;-70
2022/05/14 01:52:18;;;;;;;7.00;2.85;;;;;;;11.33;85.69;101961.91;6434096;23;20017;-71
2022/05/14 01:54:49;;;;;;;6.97;2.60;;;;;;;11.42;85.19;101961.25;6433589;23;20032;-70
2022/05/14 01:57:20;;;;;;;8.45;3.08;;;;;;;11.31;85.10;101974.28;6433384;23;20337;-71
2022/05/14 01:59:52;;;;;;;5.25;2.58;;;;;;;11.29;85.14;101968.31;6432595;23;20467;-71
2022/05/14 02:02:23;;;;;;;5.97;2.88;;;;;;;11.27;84.97;101972.81;6432123;23;20008;-70
2022/05/14 02:04:54;;;;;;;7.80;2.65;;;;;;;11.27;84.76;101975.44;6434490;23;20043;-70
2022/05/14 02:07:25;;;;;;;7.38;2.65;;;;;;;11.24;85.17;101961.72;6434007;23;20036;-70
2022/05/14 02:09:57;;;;;;;5.53;2.75;;;;;;;11.19;85.62;101969.91;6408045;23;20020;-71
2022/05/14 02:12:28;;;;;;;6.72;3.25;;;;;;;11.19;84.65;101973.34;6433150;23;20437;-68
2022/05/14 02:14:59;;;;;;;8.73;3.00;;;;;;;11.14;85.43;101969.41;6433882;23;19997;-70
2022/05/14 02:17:31;;;;;;;7.82;3.15;;;;;;;11.08;84.74;101961.94;6433974;23;20012;-71
2022/05/14 02:20:03;;;;;;;7.45;3.05;;;;;;;11.09;86.07;101974.09;6434949;23;20016;-71
2022/05/14 02:22:35;;;;;;;7.93;2.58;;;;;;;11.08;85.70;101970.63;6435640;23;20005;-71
2022/05/14 02:25:06;;;;;;;6.25;2.45;;;;;;;11.04;85.27;101974.41;6434173;23;20005;-70
2022/05/14 02:27:38;;;;;;;5.55;2.50;;;;;;;11.00;85.79;101974.75;6434261;23;20116;-70
2022/05/14 02:30:10;;;;;;;8.00;3.00;;;;;;;10.95;86.63;101969.81;6435079;23;20063;-71
2022/05/14 02:32:41;;;;;;;8.00;2.72;;;;;;;10.99;85.71;101980.94;6436627;23;20467;-70
2022/05/14 02:35:12;;;;;;;7.78;2.80;;;;;;;10.93;85.96;101975.16;6436992;23;20072;-71
2022/05/14 02:37:44;;;;;;;6.47;2.83;;;;;;;10.89;86.14;101976.31;6437534;23;20012;-71
2022/05/14 02:40:15;;;;;;;6.43;2.58;;;;;;;10.92;85.51;101978.72;6409712;23;20013;-71
2022/05/14 02:42:47;;;;;;;6.85;2.47;;;;;;;10.89;85.24;101978.94;6436467;23;20017;-70
2022/05/14 02:45:19;;;;;;;7.22;2.83;;;;;;;10.79;86.79;101983.09;6436261;23;20352;-68
2022/05/14 02:47:50;;;;;;;6.97;2.50;;;;;;;10.79;86.50;101974.41;6435007;23;20353;-71
2022/05/14 02:50:22;;;;;;;9.52;3.80;;;;;;;10.79;87.30;101977.03;6435084;23;20015;-69
2022/05/14 02:52:53;;;;;;;8.45;2.80;;;;;;;10.79;87.11;101977.88;6410348;23;20005;-70
2022/05/14 02:55:24;;;;;;;7.38;2.80;;;;;;;10.73;86.69;101983.53;6434274;23;20001;-70
2022/05/14 02:57:56;;;;;;;6.15;2.42;;;;;;;10.66;87.31;101970.00;6436941;23;20009;-70
2022/05/14 03:00:27;;;;;;;6.57;2.85;;;;;;;10.70;87.35;101975.88;6435815;23;20028;-70
2022/05/14 03:02:59;;;;;;;7.93;3.00;;;;;;;10.69;87.58;101976.81;6410928;23;20104;-70
2022/05/14 03:05:30;;;;;;;8.43;2.88;;;;;;;10.68;87.12;101985.59;6436959;23;20115;-71
2022/05/14 03:08:01;;;;;;;6.30;2.58;;;;;;;10.66;88.03;101984.88;6410416;23;20051;-70
2022/05/14 03:10:33;;;;;;;9.13;2.92;;;;;;;10.60;88.60;101975.63;6436945;23;20349;-70
2022/05/14 03:13:05;;;;;;;6.68;2.80;;;;;;;10.62;86.96;101989.50;6437210;23;20016;-70
2022/05/14 03:15:36;;;;;;;7.28;3.17;;;;;;;10.59;88.41;101986.22;6435907;23;20030;-71
2022/05/14 03:18:08;;;;;;;8.07;3.03;;;;;;;10.55;88.37;101979.53;6437407;23;20420;-70
2022/05/14 03:20:39;;;;;;;5.95;2.67;;;;;;;10.54;88.29;101972.59;6438693;23;20001;-71
2022/05/14 03:23:11;;;;;;;11.30;2.92;;;;;;;10.48;88.96;101973.84;6436809;23;20084;-70
2022/05/14 03:25:42;;;;;;;6.25;2.70;;;;;;;10.39;89.73;101964.81;6435168;23;20441;-69
2022/05/14 03:28:14;;;;;;;5.25;2.53;;;;;;;10.46;89.38;101970.50;6436356;23;20080;-69
2022/05/14 03:30:45;;;;;;;8.60;2.70;;;;;;;10.46;89.40;101975.75;6436633;23;20011;-70
2022/05/14 03:33:16;;;;;;;6.68;2.75;;;;;;;10.45;89.73;101981.91;6436346;23;20056;-71
2022/05/14 03:35:47;;;;;;;7.45;2.67;;;;;;;10.40;90.21;101982.22;6436338;23;20084;-70
2022/05/14 03:38:19;;;;;;;8.27;3.13;;;;;;;10.38;89.51;101975.38;6436876;23;20055;-70
2022/05/14 03:40:50;;;;;;;8.10;2.85;;;;;;;10.44;90.14;101975.81;6435768;23;20091;-70
2022/05/14 03:43:22;;;;;;;7.05;2.83;;;;;;;10.40;89.08;101978.75;6436298;23;20444;-70
2022/05/14 03:45:53;;;;;;;11.30;3.20;;;;;;;10.36;90.06;101974.66;6435847;23;20429;-70
2022/05/14 03:48:25;;;;;;;6.55;3.10;;;;;;;10.33;90.12;101980.09;6434290;23;20071;-69
2022/05/14 03:50:56;;;;;;;5.00;3.20;;;;;;;10.30;90.88;101975.88;6435733;23;20345;-70
2022/05/14 03:53:36;;;;;;;8.15;3.15;;;;;;;10.38;91.34;101980.63;6435994;23;20441;-70
2022/05/14 03:56:09;;;;;;;7.43;2.90;;;;;;;10.24;91.56;101977.09;6435613;23;20005;-70
2022/05/14 03:58:40;;;;;;;5.17;2.80;;;;;;;10.20;91.85;101978.25;6437012;23;20080;-70
2022/05/14 04:01:11;;;;;;;9.48;3.10;;;;;;;10.28;91.84;101979.56;6435840;23;20463;-70
2022/05/14 04:03:43;;;;;;;9.60;3.20;;;;;;;10.22;91.97;101983.38;6434682;23;20040;-70
2022/05/14 04:06:14;;;;;;;7.65;3.20;;;;;;;10.22;91.79;101975.53;6434615;23;19998;-70
2022/05/14 04:08:45;;;;;;;10.43;3.40;;;;;;;10.17;91.66;101986.31;6435293;23;20024;-70
2022/05/14 04:11:17;;;;;;;7.07;3.00;;;;;;;10.17;92.74;101980.22;6434280;23;20016;-70
2022/05/14 04:13:48;;;;;;;8.27;2.72;;;;;;;10.21;91.96;101986.94;6435778;23;20004;-70
2022/05/14 04:16:20;;;;;;;6.80;3.33;;;;;;;10.17;93.28;101985.47;6434429;23;20079;-70
2022/05/14 04:18:51;;;;;;;12.82;3.20;;;;;;;10.13;93.20;101991.84;6435532;23;20037;-70
2022/05/14 04:21:23;;;;;;;6.55;3.75;;;;;;;10.10;94.66;101995.50;6434971;23;20016;-70
2022/05/14 04:23:54;;;;;;;6.80;3.40;;;;;;;10.11;94.51;101993.69;6435852;23;20012;-70
2022/05/14 04:26:26;;;;;;;8.57;3.97;;;;;;;10.15;94.38;101992.56;6434006;23;20029;-70
2022/05/14 04:28:59;;;;;;;7.85;3.40;;;;;;;10.18;94.13;101990.59;6435671;23;20031;-70
2022/05/14 04:31:31;;;;;;;7.45;3.10;;;;;;;10.16;94.45;101987.25;6435845;23;20007;-70
2022/05/14 04:34:02;;;;;;;9.90;3.25;;;;;;;10.17;94.95;101995.94;6435250;23;20079;-70
2022/05/14 04:36:34;;;;;;;6.63;3.45;;;;;;;10.20;94.09;101990.50;6435583;23;20009;-70
2022/05/14 04:39:05;;;;;;;6.65;3.42;;;;;;;10.17;95.78;101988.91;6435452;23;20017;-70
2022/05/14 04:41:37;;;;;;;9.38;3.05;;;;;;;10.20;95.33;101986.09;6435871;23;20346;-70
2022/05/14 04:44:08;;;;;;;9.35;3.50;;;;;;;10.25;95.44;101983.22;6433350;23;20013;-70
2022/05/14 04:46:39;;;;;;;6.50;2.95;;;;;;;10.27;96.49;101993.59;6436000;23;20005;-70
2022/05/14 04:49:11;;;;;;;8.20;3.85;;;;;;;10.27;96.90;101993.59;6435943;23;20000;-70
2022/05/14 04:51:42;;;;;;;9.57;4.07;;;;;;;10.28;96.75;101998.72;6408520;23;20353;-69
2022/05/14 04:54:13;;;;;;;11.00;3.58;;;;;;;10.32;97.08;102002.84;6433692;23;20008;-69
2022/05/14 04:56:44;;;;;;;5.75;3.05;;;;;;;10.36;96.94;102006.94;6435824;23;20013;-69
2022/05/14 04:59:16;;;;;;;9.30;3.92;;;;;;;10.44;97.69;102009.88;6435293;23;20004;-69
2022/05/14 05:04:38;;;;;;;7.22;3.60;;;;;;;10.50;96.97;102006.03;6434595;23;20008;-70
2022/05/14 05:07:09;;;;;;;13.07;3.47;;;;;;;10.56;98.49;102008.22;6434361;23;20013;-69
2022/05/14 05:09:40;;;;;;;9.23;4.00;;;;;;;10.57;97.61;102009.94;6435916;23;20092;-69
2022/05/14 05:12:12;;;;;;;10.75;3.75;;;;;;;10.60;97.73;102016.72;6434863;23;20500;-69
2022/05/14 05:14:44;;;;;;;7.00;3.60;;;;;;;10.66;98.68;102011.09;6434169;23;20033;-70
2022/05/14 05:17:16;;;;;;;9.50;4.03;;;;;;;10.68;98.58;102007.44;6435495;23;20493;-70
2022/05/14 05:19:47;;;;;;;11.27;4.63;;;;;;;10.73;98.84;102004.50;6435895;23;20032;-70
2022/05/14 05:22:18;;;;;;;9.75;4.22;;;;;;;10.84;99.52;102007.25;6433303;23;20085;-70
2022/05/14 05:24:49;;;;;;;9.85;4.53;;;;;;;10.87;99.50;102007.03;6433805;23;20008;-70
2022/05/14 05:27:21;;;;;;;9.07;5.03;;;;;;;10.92;98.89;102007.56;6431984;23;20104;-70
2022/05/14 05:29:52;;;;;;;9.90;4.40;;;;;;;11.02;99.81;102009.56;6433310;23;20009;-70
2022/05/14 05:32:23;;;;;;;10.18;4.28;;;;;;;11.07;99.87;102013.56;6434308;23;20009;-70
2022/05/14 05:34:55;;;;;;;11.82;4.90;;;;;;;11.16;100.00;102017.31;6435054;23;20080;-70
2022/05/14 05:37:26;;;;;;;10.88;5.10;;;;;;;11.20;99.59;102030.13;6433956;23;20012;-70
2022/05/14 05:39:58;;;;;;;11.68;4.95;;;;;;;11.26;100.00;102020.16;6431904;23;20080;-69
2022/05/14 05:42:29;;;;;;;15.43;5.50;;;;;;;11.33;100.00;102027.50;6434762;23;20005;-70
2022/05/14 05:45:00;;;;;;;11.48;5.18;;;;;;;11.39;100.00;102024.44;6433447;23;20048;-70
2022/05/14 05:47:32;;;;;;;9.60;5.10;;;;;;;11.52;100.00;102028.84;6434337;23;20127;-72
2022/05/14 05:50:04;;;;;;;14.02;6.70;;;;;;;11.58;100.00;102029.25;6407698;23;20514;-70
2022/05/14 05:52:35;;;;;;;11.85;5.53;;;;;;;11.68;100.00;102032.91;6434139;23;20028;-70
2022/05/14 05:57:57;;;;;;;11.07;5.72;;;;;;;11.86;100.00;102033.44;6432255;23;20352;-70
2022/05/14 06:00:29;;;;;;;11.55;6.45;;;;;;;11.98;100.00;102030.88;6434999;23;20123;-70
2022/05/14 06:03:00;;;;;;;15.80;6.57;;;;;;;12.07;100.00;102022.31;6430822;23;20019;-71
2022/05/14 06:05:32;;;;;;;14.05;7.00;;;;;;;12.15;100.00;102035.75;6434115;23;20007;-70
2022/05/14 06:08:12;;;;;;;15.75;5.95;;;;;;;12.38;100.00;102034.91;6434896;23;20503;-73
2022/05/14 06:10:43;;;;;;;14.30;6.82;;;;;;;12.41;99.21;102039.94;6434925;23;20008;-70
2022/05/14 06:13:14;;;;;;;15.50;6.85;;;;;;;12.53;98.55;102032.09;6434563;23;20032;-70
2022/05/14 06:15:46;;;;;;;12.30;6.38;;;;;;;12.68;98.77;102038.84;6434453;23;20422;-71
2022/05/14 06:18:17;;;;;;;11.93;6.47;;;;;;;12.78;96.90;102039.84;6431820;23;20166;-71
2022/05/14 06:20:48;;;;;;;16.35;6.75;;;;;;;12.88;98.84;102040.84;6434630;23;20381;-71
2022/05/14 06:23:20;;;;;;;13.27;6.65;;;;;;;13.01;97.62;102038.09;6435181;23;20013;-71
2022/05/14 06:25:51;;;;;;;16.60;7.03;;;;;;;13.10;97.16;102049.69;6432338;23;20012;-71
2022/05/14 06:28:23;;;;;;;13.05;7.25;;;;;;;13.25;97.87;102039.84;6432857;23;20437;-72
2022/05/14 06:30:56;;;;;;;15.70;8.13;;;;;;;13.39;97.05;102043.06;6435675;23;20787;-72
2022/05/14 06:33:28;;;;;;;15.23;7.78;;;;;;;13.45;95.24;102047.03;6432338;23;20005;-72
2022/05/14 06:35:59;;;;;;;13.77;7.97;;;;;;;13.54;96.27;102051.56;6431919;23;20074;-71
2022/05/14 06:38:30;;;;;;;16.50;7.03;;;;;;;13.65;94.97;102063.91;6430450;23;20021;-72
2022/05/14 06:41:12;;;;;;;17.33;7.65;;;;;;;13.88;94.99;102057.66;6404651;23;20009;-72
2022/05/14 06:43:44;;;;;;;19.15;8.15;;;;;;;13.96;93.97;102066.75;6432722;23;20095;-72
2022/05/14 06:46:15;;;;;;;18.17;8.23;;;;;;;14.06;93.59;102063.25;6431760;23;20346;-71
2022/05/14 06:48:47;;;;;;;14.88;7.57;;;;;;;14.19;92.52;102067.53;6431749;23;20005;-72
2022/05/14 06:51:25;;;;;;;16.90;7.68;;;;;;;14.40;92.23;102072.88;6433229;23;20104;-71
2022/05/14 06:54:01;;;;;;;12.57;7.75;;;;;;;14.50;91.28;102072.00;6432693;23;20005;-71
2022/05/14 06:56:34;;;;;;;15.50;7.82;;;;;;;14.54;90.09;102067.34;6432483;23;20000;-72
2022/05/14 06:59:05;;;;;;;;;;;;;;;15.13;88.57;102069.44;6432155;23;20016;-72
2022/05/14 07:01:39;;;;;;;19.23;8.13;;;;;;;14.89;88.43;102061.78;6433769;23;20295;-71
2022/05/14 07:07:05;;;;;;;15.75;7.63;;;;;;;15.03;87.07;102052.69;6430456;23;20005;-72
2022/05/14 07:09:37;;;;;;;;;;;;;;;15.63;85.43;102058.97;6431884;23;20111;-70
2022/05/14 07:12:09;;;;;;;14.10;7.40;;;;;;;15.35;85.19;102064.97;6430184;23;19908;-72
2022/05/14 07:14:43;;;;;;;17.45;8.35;;;;;;;15.44;84.48;102057.09;6432699;23;20004;-72
2022/05/14 07:17:16;;;;;;;13.75;7.47;;;;;;;15.37;83.37;102048.00;6410026;23;20016;-71
2022/05/14 07:19:49;;;;;;;16.17;8.07;;;;;;;15.70;83.49;102056.66;6433932;23;20595;-71
2022/05/14 07:22:20;;;;;;;14.85;8.27;;;;;;;15.79;83.16;102059.31;6435434;23;20516;-72
2022/05/14 07:24:52;;;;;;;17.38;8.25;;;;;;;15.92;82.92;102067.03;6435767;23;20032;-70
2022/05/14 07:27:23;;;;;;;17.40;8.50;;;;;;;15.94;80.97;102058.94;6429535;23;20108;-71
2022/05/14 07:29:55;;;;;;;13.80;8.27;;;;;;;16.03;81.00;102071.38;6433158;23;20379;-71
2022/05/14 07:32:26;;;;;;;13.48;8.38;;;;;;;16.20;81.08;102057.47;6409751;23;20035;-71
2022/05/14 07:34:57;;;;;;;19.70;8.85;;;;;;;16.30;80.13;102050.41;6434601;23;20001;-71
2022/05/14 07:37:34;;;;;;;17.77;7.72;;;;;;;16.54;80.27;102059.72;6433720;23;20356;-71
2022/05/14 07:40:08;;;;;;;17.30;7.68;;;;;;;16.47;79.01;102066.53;6431911;23;20128;-71
2022/05/14 07:42:46;;;;;;;15.82;8.98;;;;;;;16.69;79.99;102060.97;6433720;23;20017;-71
2022/05/14 07:45:23;;;;;;;16.45;8.13;;;;;;;16.89;77.87;102060.97;6435345;23;20013;-71
2022/05/14 07:47:56;;;;;;;17.73;8.55;;;;;;;17.01;77.50;102057.22;6434982;23;20005;-71
2022/05/14 07:50:28;;;;;;;19.92;8.27;;;;;;;17.20;76.86;102057.16;6434148;23;20084;-71
2022/05/14 07:52:59;;;;;;;17.13;7.93;;;;;;;17.35;75.40;102062.84;6433782;23;20032;-71
2022/05/14 07:55:33;;;;;;;20.08;8.93;;;;;;;17.44;73.95;102071.72;6433801;23;20039;-71
2022/05/14 07:58:04;;;;;;;17.67;7.63;;;;;;;17.51;73.32;102065.69;6409851;23;20015;-71
2022/05/14 08:00:36;;;;;;;17.50;8.00;;;;;;;17.60;71.67;102063.97;6434407;23;20076;-71
2022/05/14 08:03:08;;;;;;;17.13;8.43;;;;;;;17.92;71.85;102066.22;6434639;23;20012;-71
2022/05/14 08:05:39;;;;;;;21.35;8.88;;;;;;;18.01;70.19;102071.63;6434811;23;20005;-72
2022/05/14 08:08:11;;;;;;;15.52;7.95;;;;;;;18.11;69.96;102072.41;6433402;23;20009;-71
2022/05/14 08:10:43;;;;;;;15.32;7.70;;;;;;;18.07;69.57;102074.53;6432734;23;20084;-71
2022/05/14 08:13:20;;;;;;;18.50;7.90;;;;;;;18.34;70.63;102070.97;6407427;23;20001;-72
2022/05/14 08:15:52;;;;;;;16.95;7.97;;;;;;;18.36;68.83;102062.84;6430638;23;20771;-72
2022/05/14 08:18:23;;;;;;;16.25;8.60;;;;;;;18.39;68.24;102071.34;6433391;23;20017;-71
2022/05/14 08:20:55;;;;;;;19.20;7.65;;;;;;;18.72;69.45;102061.06;6435217;23;20059;-72
2022/05/14 08:26:16;;;;;;;20.52;8.65;;;;;;;18.99;67.71;102068.06;6433000;23;20009;-71
2022/05/14 08:28:47;;;;;;;19.30;8.73;;;;;;;19.19;65.37;102069.50;6433563;23;20429;-71
2022/05/14 08:31:18;;;;;;;22.87;8.43;;;;;;;19.33;63.58;102062.78;6433728;23;20009;-71
2022/05/14 08:33:50;;;;;;;17.07;7.57;;;;;;;19.45;62.64;102061.53;6435439;23;20001;-71
2022/05/14 08:36:21;;;;;;;14.73;6.97;;;;;;;19.34;60.90;102072.41;6431494;23;20008;-71
2022/05/14 08:38:54;;;;;;;14.43;7.22;;;;;;;19.48;60.32;102064.88;6433034;23;20541;-71
2022/05/14 08:41:26;;;;;;;13.25;6.70;;;;;;;19.62;62.36;102073.13;6435053;23;20029;-71
2022/05/14 08:44:04;;;;;;;13.77;7.20;;;;;;;19.77;60.55;102065.34;6434278;23;20102;-71
2022/05/14 08:46:37;;;;;;;17.30;8.00;;;;;;;19.95;61.24;102064.41;6433079;23;20081;-72
2022/05/14 08:49:27;;;;;;;19.17;7.65;;;;;;;20.01;58.99;102064.59;6431478;23;20015;-71
2022/05/14 08:51:59;;;;;;;16.08;7.25;;;;;;;20.03;58.99;102061.75;6433051;23;20428;-71
2022/05/14 08:54:32;;;;;;;16.10;7.63;;;;;;;20.12;57.83;102064.28;6430269;23;20032;-71
2022/05/14 08:57:41;;;;;;;14.10;6.93;;;;;;;20.39;58.12;102055.19;6430975;23;20017;-71
2022/05/14 09:00:13;;;;;;;15.00;6.95;;;;;;;20.20;58.56;102059.97;6431914;23;20012;-71
2022/05/14 09:02:48;;;;;;;14.33;7.10;;;;;;;20.49;59.23;102060.34;6404246;23;20001;-71
2022/05/14 09:05:27;;;;;;;16.52;7.43;;;;;;;20.69;57.09;102052.88;6434112;23;20008;-73
2022/05/14 09:08:01;;;;;;;17.20;7.70;;;;;;;20.65;58.31;102057.72;6431103;23;20024;-68
2022/05/14 09:10:35;;;;;;;16.02;7.53;;;;;;;20.71;55.47;102060.69;6430887;23;20039;-69
2022/05/14 09:13:14;;;;;;;21.35;7.28;;;;;;;20.81;56.67;102072.03;6432641;23;20005;-68
2022/05/14 09:15:55;;;;;;;19.00;7.35;;;;;;;20.96;56.17;102069.50;6432747;23;20008;-68
2022/05/14 09:18:32;;;;;;;19.50;7.75;;;;;;;21.01;54.17;102057.34;6434732;23;20341;-68
2022/05/14 09:21:08;;;;;;;18.40;7.50;;;;;;;21.08;55.18;102060.16;6433825;23;20016;-69
2022/05/14 09:23:46;;;;;;;13.07;6.50;;;;;;;21.00;54.80;102060.19;6434232;23;20071;-69
2022/05/14 09:26:24;;;;;;;18.05;7.50;;;;;;;21.26;54.47;102068.78;6433188;23;20024;-69
2022/05/14 09:28:58;;;;;;;16.67;7.68;;;;;;;21.01;54.46;102067.16;6434278;23;20060;-69
2022/05/14 09:31:36;;;;;;;16.25;6.80;;;;;;;20.94;54.76;102061.66;6433905;23;20083;-69
2022/05/14 09:34:17;;;;;;;15.75;7.07;;;;;;;21.19;54.00;102042.97;6434505;23;20330;-69
2022/05/14 09:36:50;;;;;;;12.55;6.32;;;;;;;21.28;52.25;102050.78;6434100;23;20393;-69
2022/05/14 09:39:22;;;;;;;12.35;5.53;;;;;;;21.38;52.40;102055.94;6435307;23;20012;-69
2022/05/14 09:41:59;;;;;;;19.70;6.03;;;;;;;21.67;53.57;102052.69;6408650;23;20016;-69
2022/05/14 09:44:42;;;;;;;13.73;5.97;;;;;;;21.56;51.74;102053.88;6432398;23;20009;-69
2022/05/14 09:47:26;;;;;;;14.98;6.00;;;;;;;21.58;49.68;102046.53;6435134;23;20459;-69
2022/05/14 09:50:04;;;;;;;15.30;6.20;;;;;;;21.38;51.62;102042.63;6434661;23;20400;-69
2022/05/14 09:52:36;;;;;;;15.77;6.45;;;;;;;21.12;50.87;102051.66;6434429;23;20012;-70
2022/05/14 09:55:08;;;;;;;15.10;5.97;;;;;;;21.00;50.42;102054.84;6432845;23;20425;-70
2022/05/14 09:57:52;;;;;;;11.33;5.13;;;;;;;21.21;49.80;102046.28;6435320;23;20059;-69
2022/05/14 10:00:38;;;;;;;14.57;5.55;;;;;;;21.44;51.27;102046.41;6435148;23;20009;-70
2022/05/14 10:03:24;;;;;;;12.70;5.75;;;;;;;21.48;50.28;102055.72;6434288;23;20084;-69
2022/05/14 10:06:26;;;;;;;14.10;5.47;;;;;;;21.62;50.37;102047.00;6406442;23;20001;-69
2022/05/14 10:08:57;;;;;;;12.55;5.72;;;;;;;21.72;49.82;102057.47;6434599;23;20008;-70
2022/05/14 10:11:40;;;;;;;13.10;6.03;;;;;;;22.13;51.24;102054.59;6433093;23;20825;-69
2022/05/14 10:14:56;;;;;;;12.82;5.65;;;;;;;22.67;49.35;102051.88;6432751;23;20009;-70
2022/05/14 10:17:46;;;;;;;12.35;5.35;;;;;;;22.57;48.08;102057.44;6369543;23;20018;-69
2022/05/14 10:20:23;;;;;;;13.63;6.13;;;;;;;22.22;46.61;102050.88;6432080;23;20011;-69
2022/05/14 10:29:17;;;;;;;16.63;6.37;;;;;;;22.58;44.12;102043.94;6430855;23;20017;-70
2022/05/14 10:31:53;;;;;;;12.32;4.68;;;;;;;22.72;42.55;102047.63;6430892;23;20421;-69
2022/05/14 10:34:45;;;;;;;12.43;5.05;;;;;;;23.11;42.63;102053.78;6432744;23;20015;-70
2022/05/14 10:37:31;;;;;;;21.00;4.50;;;;;;;23.30;41.56;102053.28;6422521;23;20013;-70
2022/05/14 10:40:20;;;;;;;11.02;4.50;;;;;;;23.49;41.63;102050.03;6432178;23;20449;-70
2022/05/14 10:42:59;;;;;;;19.13;5.47;;;;;;;23.24;41.10;102060.16;6406345;23;20397;-70
2022/05/14 10:45:41;;;;;;;14.80;5.05;;;;;;;23.21;41.64;102052.50;6432934;23;20012;-70
2022/05/14 10:48:34;;;;;;;12.98;5.07;;;;;;;23.58;40.50;102050.75;6407256;23;20092;-70
2022/05/14 10:51:08;;;;;;;;;;;;;;;24.19;39.00;102050.44;6433678;23;20004;-70
2022/05/14 10:53:42;;;;;;;11.93;4.70;;;;;;;23.84;40.52;102052.13;6433729;23;19923;-71
2022/05/14 10:56:28;;;;;;;14.43;4.72;;;;;;;23.95;38.62;102051.63;6435215;23;20005;-70
2022/05/14 10:59:07;;;;;;;12.55;5.32;;;;;;;23.90;39.70;102059.38;6433335;23;20099;-69
2022/05/14 11:02:02;;;;;;;11.70;5.35;;;;;;;24.26;39.42;102056.69;6407181;23;20365;-69
2022/05/14 11:04:36;;;;;;;13.10;5.43;;;;;;;24.00;38.62;102042.00;6436511;23;20032;-70
2022/05/14 11:07:10;;;;;;;11.10;5.20;;;;;;;23.82;37.83;102041.59;6435717;23;20024;-70
2022/05/14 11:09:44;;;;;;;14.55;5.18;;;;;;;23.99;38.77;102053.72;6435066;23;20016;-70
2022/05/14 11:12:18;;;;;;;14.90;5.28;;;;;;;24.03;36.67;102046.97;6432339;23;20449;-70
2022/05/14 11:14:58;;;;;;;11.82;4.47;;;;;;;24.61;38.21;102054.97;6428528;23;20001;-69
2022/05/14 11:17:32;;;;;;;27.95;6.00;;;;;;;24.32;36.71;102042.53;6434882;23;20019;-68
2022/05/14 11:20:03;;;;;;;11.93;4.53;;;;;;;24.64;36.76;102041.19;6435467;23;20221;-69
2022/05/14 11:22:46;;;;;;;11.33;4.87;;;;;;;24.79;38.03;102040.25;6408764;23;20009;-68
2022/05/14 11:25:20;;;;;;;12.55;4.93;;;;;;;24.48;38.09;102054.88;6436306;23;20425;-68
2022/05/14 11:28:17;;;;;;;13.35;5.68;;;;;;;24.86;37.79;102051.88;6408787;23;20417;-69
2022/05/14 11:30:51;;;;;;;14.20;5.32;;;;;;;24.61;37.56;102048.78;6430861;23;20005;-69
2022/05/14 11:33:25;;;;;;;14.32;5.47;;;;;;;24.66;37.40;102044.50;6433405;23;20540;-69
2022/05/14 11:35:58;;;;;;;17.33;6.00;;;;;;;24.65;35.94;102044.69;6430781;23;20507;-69
2022/05/14 11:38:31;;;;;;;;;;;;;;;25.50;35.78;102050.81;6435119;23;20040;-69
2022/05/14 11:41:12;;;;;;;14.68;5.50;;;;;;;25.14;36.11;102051.88;6434180;23;19908;-69
2022/05/14 11:43:43;;;;;;;14.35;5.25;;;;;;;24.83;34.95;102050.41;6435281;23;20008;-68
2022/05/14 11:46:29;;;;;;;11.60;5.33;;;;;;;25.16;36.41;102042.59;6435201;23;20016;-68
2022/05/14 11:49:15;;;;;;;11.38;5.60;;;;;;;25.25;36.43;102037.91;6436148;23;20009;-69
2022/05/14 11:52:03;;;;;;;12.85;5.50;;;;;;;25.16;36.47;102053.31;6435999;23;20012;-68
2022/05/14 11:54:43;;;;;;;14.98;5.70;;;;;;;24.95;35.48;102051.50;6428882;23;20344;-70
2022/05/14 11:57:39;;;;;;;13.43;5.80;;;;;;;24.66;35.06;102044.50;6432719;23;20020;-70
2022/05/14 12:00:16;;;;;;;12.30;5.43;;;;;;;24.83;34.11;102050.41;6433579;23;20703;-69
2022/05/14 12:03:16;;;;;;;12.98;5.45;;;;;;;25.33;35.21;102055.69;6434133;23;20001;-69
2022/05/14 12:06:15;;;;;;;8.73;5.18;;;;;;;25.13;34.33;102048.34;6431973;23;20372;-70
2022/05/14 12:09:07;;;;;;;17.23;6.07;;;;;;;25.11;34.27;102046.88;6429263;23;20460;-69
2022/05/14 12:12:25;;;;;;;11.32;4.97;;;;;;;25.47;33.34;102039.44;6433380;23;20009;-69
2022/05/14 12:15:05;;;;;;;10.43;5.05;;;;;;;25.29;33.24;102039.16;6432873;23;20009;-70
2022/05/14 12:17:37;;;;;;;11.45;4.75;;;;;;;25.20;34.12;102037.69;6433796;23;20012;-70
2022/05/14 12:20:09;;;;;;;12.10;5.60;;;;;;;24.91;34.23;102044.88;6434860;23;20011;-70